Time;durP1;ratioP1;P1;durP2;ratioP2;P2;SDS_P1;SDS_P2;PMS_P1;PMS_P2;Temp;Humidity;BMP_temperature;BMP_pressure;BME280_temperature;BME280_humidity;BME280_pressure;Samples;Min_cycle;Max_cycle;Signal;HPM_P1;HPM_P2
2021/07/08 00:02:19;;;;;;;15.97;7.00;;;17.50;99.90;;;;;;5064663;28;20952;-50
2021/07/08 00:04:46;;;;;;;8.03;6.23;;;17.40;99.90;;;;;;5046122;28;20456;-51
2021/07/08 00:07:13;;;;;;;8.43;7.03;;;17.30;99.90;;;;;;5063158;28;20450;-51
2021/07/08 00:09:41;;;;;;;7.83;5.90;;;17.40;99.90;;;;;;5068422;28;20477;-51
2021/07/08 00:12:09;;;;;;;6.10;5.50;;;17.50;99.90;;;;;;5065388;28;20475;-50
2021/07/08 00:14:38;;;;;;;12.40;7.20;;;17.50;99.90;;;;;;5051581;28;20447;-51
2021/07/08 00:17:07;;;;;;;8.17;6.60;;;17.50;99.90;;;;;;5052899;28;20497;-50
2021/07/08 00:19:34;;;;;;;6.63;5.67;;;17.40;99.90;;;;;;5052691;28;20475;-51
2021/07/08 00:22:01;;;;;;;7.33;6.30;;;17.50;99.90;;;;;;5051937;28;21087;-50
2021/07/08 00:24:28;;;;;;;7.10;6.33;;;17.50;99.90;;;;;;5060038;28;20455;-50
2021/07/08 00:26:55;;;;;;;7.03;6.17;;;17.50;99.90;;;;;;5052508;28;20509;-50
2021/07/08 00:29:22;;;;;;;17.10;7.13;;;17.40;99.90;;;;;;5052320;28;20467;-51
2021/07/08 00:31:50;;;;;;;6.80;6.10;;;17.40;99.90;;;;;;5052058;28;20483;-49
2021/07/08 00:34:17;;;;;;;7.93;7.00;;;17.40;99.90;;;;;;5052107;28;21196;-51
2021/07/08 00:36:45;;;;;;;7.60;6.27;;;17.40;99.90;;;;;;5054256;28;20451;-50
2021/07/08 00:39:12;;;;;;;7.87;6.17;;;17.40;99.90;;;;;;5062749;28;20555;-51
2021/07/08 00:41:39;;;;;;;11.13;6.70;;;17.40;99.90;;;;;;5051790;28;20447;-50
2021/07/08 00:44:06;;;;;;;8.23;6.67;;;17.40;99.90;;;;;;5051860;28;20448;-50
2021/07/08 00:46:33;;;;;;;9.20;6.97;;;17.40;99.90;;;;;;5066392;28;20512;-50
2021/07/08 00:49:01;;;;;;;8.70;6.90;;;17.40;99.90;;;;;;5052054;28;20941;-50
2021/07/08 00:51:28;;;;;;;7.40;6.50;;;17.40;99.90;;;;;;5052166;28;20487;-51
2021/07/08 00:53:55;;;;;;;10.03;7.33;;;17.40;99.90;;;;;;5051439;28;20448;-51
2021/07/08 00:56:24;;;;;;;10.70;6.87;;;17.30;99.90;;;;;;5051871;28;20510;-51
2021/07/08 00:59:02;;;;;;;8.83;7.20;;;17.10;99.90;;;;;;5052003;28;20451;-51
2021/07/08 01:01:30;;;;;;;8.83;7.50;;;17.00;99.90;;;;;;5042956;28;20460;-51
2021/07/08 01:03:57;;;;;;;11.40;7.43;;;17.00;99.90;;;;;;5051168;28;20452;-50
2021/07/08 01:06:27;;;;;;;9.13;7.30;;;17.00;99.90;;;;;;5051844;28;20968;-51
2021/07/08 01:08:54;;;;;;;11.37;7.37;;;17.00;99.90;;;;;;5051381;28;20456;-51
2021/07/08 01:11:22;;;;;;;9.60;7.50;;;17.10;99.90;;;;;;5051039;28;20463;-50
2021/07/08 01:13:49;;;;;;;9.80;7.30;;;17.10;99.90;;;;;;5051153;28;20455;-51
2021/07/08 01:16:16;;;;;;;8.70;7.60;;;17.20;99.90;;;;;;5050916;28;20455;-51
2021/07/08 01:18:43;;;;;;;10.97;7.27;;;17.10;99.90;;;;;;5051023;28;20547;-51
2021/07/08 01:21:22;;;;;;;7.60;6.57;;;17.10;99.90;;;;;;5051420;28;20541;-51
2021/07/08 01:23:49;;;;;;;10.00;7.00;;;17.20;99.90;;;;;;5051682;28;20451;-50
2021/07/08 01:26:17;;;;;;;6.93;5.90;;;17.20;99.90;;;;;;5051838;28;20448;-51
2021/07/08 01:28:44;;;;;;;7.70;6.70;;;17.10;99.90;;;;;;5050801;28;20456;-51
2021/07/08 01:31:11;;;;;;;8.13;7.20;;;17.30;99.90;;;;;;5051244;28;20471;-51
2021/07/08 01:33:38;;;;;;;9.73;7.40;;;17.30;99.90;;;;;;5051110;28;20451;-50
2021/07/08 01:36:06;;;;;;;10.47;7.70;;;17.20;99.90;;;;;;5051507;28;20941;-50
2021/07/08 01:38:34;;;;;;;8.27;6.90;;;17.20;99.90;;;;;;5051325;28;20452;-51
2021/07/08 01:41:01;;;;;;;8.40;7.50;;;17.20;99.90;;;;;;5051566;28;20466;-50
2021/07/08 01:43:28;;;;;;;9.70;7.63;;;17.20;99.90;;;;;;5051002;28;20452;-50
2021/07/08 01:45:57;;;;;;;9.37;7.40;;;17.10;99.90;;;;;;5050882;28;20573;-50
2021/07/08 01:48:24;;;;;;;9.37;8.03;;;17.10;99.90;;;;;;5050684;28;20456;-51
2021/07/08 01:50:51;;;;;;;10.13;7.90;;;17.00;99.90;;;;;;5051354;28;20468;-51
2021/07/08 01:53:18;;;;;;;10.37;7.53;;;17.10;99.90;;;;;;5051024;28;20483;-51
2021/07/08 01:55:46;;;;;;;9.53;7.43;;;17.10;99.90;;;;;;5051209;28;20502;-50
2021/07/08 01:58:13;;;;;;;9.20;7.60;;;17.10;99.90;;;;;;5050510;28;20805;-50
2021/07/08 02:00:40;;;;;;;11.50;8.60;;;17.20;99.90;;;;;;5050414;28;21245;-50
2021/07/08 02:03:07;;;;;;;9.80;8.10;;;17.10;99.90;;;;;;5051314;28;20448;-50
2021/07/08 02:05:34;;;;;;;12.30;9.10;;;17.10;99.90;;;;;;5051390;28;20866;-51
2021/07/08 02:08:01;;;;;;;14.00;8.80;;;17.20;99.90;;;;;;5050933;28;20874;-51
2021/07/08 02:10:28;;;;;;;10.57;8.93;;;17.20;99.90;;;;;;5051010;28;20899;-51
2021/07/08 02:12:56;;;;;;;13.60;9.70;;;17.20;99.90;;;;;;5050555;28;20480;-51
2021/07/08 02:15:23;;;;;;;11.33;8.97;;;17.00;99.90;;;;;;5050942;28;20497;-51
2021/07/08 02:17:50;;;;;;;10.90;9.33;;;17.00;99.90;;;;;;5051177;28;20501;-50
2021/07/08 02:20:18;;;;;;;13.80;9.10;;;17.00;99.90;;;;;;5050873;28;20471;-50
2021/07/08 02:22:46;;;;;;;10.40;8.53;;;16.90;99.90;;;;;;5050883;28;20444;-51
2021/07/08 02:25:14;;;;;;;10.07;7.50;;;17.00;99.90;;;;;;5050787;28;20462;-51
2021/07/08 02:27:41;;;;;;;10.50;8.23;;;17.10;99.90;;;;;;5052974;28;20514;-51
2021/07/08 02:30:13;;;;;;;10.07;7.70;;;17.10;99.90;;;;;;5054995;28;20901;-51
2021/07/08 02:32:41;;;;;;;9.20;7.60;;;16.90;99.90;;;;;;5054686;28;20487;-51
2021/07/08 02:35:11;;;;;;;9.47;7.00;;;16.80;99.90;;;;;;5053489;28;20513;-51
2021/07/08 02:37:39;;;;;;;8.90;6.67;;;16.90;99.90;;;;;;5054842;28;20501;-50
2021/07/08 02:40:09;;;;;;;10.00;7.10;;;16.80;99.90;;;;;;5044419;28;20529;-51
2021/07/08 02:42:36;;;;;;;8.47;6.00;;;16.80;99.90;;;;;;5054252;28;20979;-50
2021/07/08 02:45:04;;;;;;;11.30;6.83;;;16.70;99.90;;;;;;5049973;28;20447;-51
2021/07/08 02:47:32;;;;;;;10.67;7.87;;;16.70;99.90;;;;;;5053840;28;20953;-51
2021/07/08 02:49:59;;;;;;;7.23;6.23;;;16.70;99.90;;;;;;5054461;28;20480;-49
2021/07/08 02:52:27;;;;;;;16.13;6.17;;;16.70;99.90;;;;;;5054294;28;20530;-51
2021/07/08 02:54:54;;;;;;;8.93;7.23;;;16.70;99.90;;;;;;5054029;28;20447;-50
2021/07/08 02:57:23;;;;;;;10.00;7.07;;;16.70;99.90;;;;;;5053555;28;20452;-51
2021/07/08 02:59:50;;;;;;;11.13;9.00;;;16.70;99.90;;;;;;5053844;28;20993;-51
2021/07/08 03:02:17;;;;;;;10.33;8.23;;;16.60;99.90;;;;;;5053964;28;20444;-51
2021/07/08 03:04:47;;;;;;;12.77;8.53;;;16.60;99.90;;;;;;5054108;28;20448;-50
2021/07/08 03:07:14;;;;;;;10.70;8.10;;;16.60;99.90;;;;;;5053605;28;20915;-50
2021/07/08 03:09:41;;;;;;;13.00;8.70;;;16.60;99.90;;;;;;5053277;28;20476;-50
2021/07/08 03:12:10;;;;;;;8.60;6.93;;;16.60;99.90;;;;;;5053810;28;20910;-51
2021/07/08 03:14:37;;;;;;;12.90;8.87;;;16.70;99.90;;;;;;5054059;28;20448;-50
2021/07/08 03:17:04;;;;;;;11.40;7.70;;;16.70;99.90;;;;;;5053626;28;20494;-51
2021/07/08 03:19:31;;;;;;;11.13;8.13;;;16.70;99.90;;;;;;5053735;28;20526;-51
2021/07/08 03:22:00;;;;;;;12.00;9.13;;;16.70;99.90;;;;;;5053571;28;20525;-51
2021/07/08 03:24:27;;;;;;;11.40;9.00;;;16.70;99.90;;;;;;5053336;28;20455;-50
2021/07/08 03:26:54;;;;;;;11.10;8.70;;;16.60;99.90;;;;;;5053520;28;20501;-51
2021/07/08 03:29:22;;;;;;;12.63;9.03;;;16.60;99.90;;;;;;5053224;28;20937;-50
2021/07/08 03:31:49;;;;;;;12.83;8.57;;;16.60;99.90;;;;;;5053370;28;20949;-50
2021/07/08 03:34:16;;;;;;;12.90;9.60;;;16.60;99.90;;;;;;5053083;28;20478;-51
2021/07/08 03:36:43;;;;;;;11.60;9.00;;;16.60;99.90;;;;;;5053538;28;20933;-51
2021/07/08 03:39:11;;;;;;;11.27;8.60;;;16.70;99.90;;;;;;5052837;28;20476;-51
2021/07/08 03:41:38;;;;;;;12.40;8.83;;;16.70;99.90;;;;;;5053485;28;20448;-51
2021/07/08 03:44:06;;;;;;;11.33;8.93;;;16.80;99.90;;;;;;5053075;28;20909;-51
2021/07/08 03:46:33;;;;;;;12.20;8.70;;;16.70;99.90;;;;;;5053021;28;20455;-51
2021/07/08 03:49:00;;;;;;;13.23;9.40;;;16.70;99.90;;;;;;5053114;28;20454;-51
2021/07/08 03:51:27;;;;;;;10.53;8.50;;;16.70;99.90;;;;;;5053629;28;20447;-51
2021/07/08 03:53:55;;;;;;;11.40;8.20;;;16.60;99.90;;;;;;5052272;28;20483;-50
2021/07/08 03:56:23;;;;;;;11.50;8.47;;;16.60;99.90;;;;;;5053124;28;21010;-50
2021/07/08 03:58:51;;;;;;;11.33;8.70;;;16.60;99.90;;;;;;5052239;28;20487;-50
2021/07/08 04:01:19;;;;;;;12.23;8.90;;;16.60;99.90;;;;;;5065545;22;20499;-56
2021/07/08 04:03:46;;;;;;;11.30;8.60;;;16.50;99.90;;;;;;5041086;28;20439;-56
2021/07/08 04:06:13;;;;;;;11.63;8.70;;;16.60;99.90;;;;;;5053260;28;20447;-56
2021/07/08 04:08:40;;;;;;;12.80;8.50;;;16.60;99.90;;;;;;5038919;28;20457;-56
2021/07/08 04:11:07;;;;;;;10.30;7.93;;;16.70;99.90;;;;;;5032978;28;20530;-56
2021/07/08 04:13:35;;;;;;;10.90;8.23;;;16.70;99.90;;;;;;5032668;28;20538;-56
2021/07/08 04:16:02;;;;;;;12.57;8.80;;;16.80;99.90;;;;;;5033063;28;20805;-56
2021/07/08 04:18:29;;;;;;;11.03;8.40;;;16.90;99.90;;;;;;5032937;28;20460;-56
2021/07/08 04:20:56;;;;;;;14.23;9.23;;;16.80;99.90;;;;;;5046968;28;20475;-56
2021/07/08 04:23:24;;;;;;;10.30;8.20;;;16.80;99.90;;;;;;5051806;28;20452;-56
2021/07/08 04:25:51;;;;;;;11.93;8.67;;;16.80;99.90;;;;;;5052150;28;20498;-55
2021/07/08 04:28:18;;;;;;;11.00;8.90;;;16.80;99.90;;;;;;5052318;28;20869;-56
2021/07/08 04:30:46;;;;;;;11.30;8.57;;;16.80;99.90;;;;;;5041603;28;20525;-56
2021/07/08 04:33:13;;;;;;;13.53;9.50;;;16.80;99.90;;;;;;5047155;28;20491;-56
2021/07/08 04:35:40;;;;;;;11.83;9.27;;;16.70;99.90;;;;;;5038681;28;20468;-56
2021/07/08 04:38:09;;;;;;;10.33;8.20;;;16.80;99.90;;;;;;5062706;28;20482;-56
2021/07/08 04:40:37;;;;;;;13.50;9.90;;;16.80;99.90;;;;;;5070137;28;20467;-56
2021/07/08 04:43:05;;;;;;;12.87;9.50;;;16.80;99.90;;;;;;5050798;28;20455;-56
2021/07/08 04:45:33;;;;;;;11.30;9.43;;;16.80;99.90;;;;;;5051622;28;20456;-56
2021/07/08 04:48:02;;;;;;;14.13;9.37;;;16.70;99.90;;;;;;5049495;28;20459;-56
2021/07/08 04:50:29;;;;;;;11.40;8.80;;;16.80;99.90;;;;;;5051499;28;20494;-56
2021/07/08 04:52:56;;;;;;;13.10;9.13;;;16.80;99.90;;;;;;5053169;28;20532;-56
2021/07/08 04:55:24;;;;;;;13.60;8.93;;;16.70;99.90;;;;;;5050969;28;20452;-56
2021/07/08 04:57:52;;;;;;;10.67;8.10;;;16.70;99.90;;;;;;5051645;28;20823;-56
2021/07/08 05:00:21;;;;;;;9.20;6.60;;;16.80;99.90;;;;;;5051373;28;21027;-55
2021/07/08 05:02:49;;;;;;;10.03;7.63;;;16.80;99.90;;;;;;5051824;28;20937;-56
2021/07/08 05:05:18;;;;;;;7.70;6.23;;;16.90;99.90;;;;;;5047945;28;20892;-56
2021/07/08 05:07:45;;;;;;;7.40;5.03;;;16.90;99.90;;;;;;5044685;28;20475;-56
2021/07/08 05:10:15;;;;;;;7.10;5.60;;;16.80;99.90;;;;;;5051390;28;20510;-56
2021/07/08 05:12:43;;;;;;;6.70;5.43;;;16.80;99.90;;;;;;5050493;28;21003;-56
2021/07/08 05:15:13;;;;;;;8.23;5.60;;;16.90;99.90;;;;;;5049579;28;20510;-56
2021/07/08 05:17:41;;;;;;;8.27;6.17;;;16.90;99.90;;;;;;5042023;28;20447;-56
2021/07/08 05:20:09;;;;;;;8.10;5.80;;;16.80;99.90;;;;;;5051508;28;20452;-56
2021/07/08 05:22:39;;;;;;;7.47;5.90;;;16.80;99.90;;;;;;5051354;28;20455;-56
2021/07/08 05:25:08;;;;;;;7.30;6.40;;;16.80;99.90;;;;;;5045534;28;20490;-56
2021/07/08 05:27:36;;;;;;;12.90;5.77;;;16.70;99.90;;;;;;5042752;28;20459;-56
2021/07/08 05:30:04;;;;;;;8.90;5.80;;;16.60;99.90;;;;;;5051846;28;20447;-55
2021/07/08 05:32:31;;;;;;;7.73;6.00;;;16.50;99.90;;;;;;5051245;28;20468;-56
2021/07/08 05:34:58;;;;;;;7.03;6.00;;;16.70;99.90;;;;;;5051245;28;20452;-56
2021/07/08 05:37:25;;;;;;;8.90;6.57;;;16.70;99.90;;;;;;5051238;28;20876;-56
2021/07/08 05:39:54;;;;;;;11.73;6.23;;;16.80;99.90;;;;;;5051217;28;20452;-56
2021/07/08 05:42:20;;;;;;;7.10;6.33;;;16.80;99.90;;;;;;5050635;28;20475;-56
2021/07/08 05:44:47;;;;;;;7.90;6.40;;;17.10;99.90;;;;;;5050471;28;20439;-56
2021/07/08 05:47:15;;;;;;;7.30;5.90;;;17.30;99.90;;;;;;5051244;28;20978;-56
2021/07/08 05:49:42;;;;;;;7.10;5.60;;;17.10;99.90;;;;;;5050991;28;20452;-56
2021/07/08 05:52:10;;;;;;;8.07;7.27;;;17.10;99.90;;;;;;5048972;28;20468;-56
2021/07/08 05:54:37;;;;;;;14.60;6.63;;;17.10;99.90;;;;;;5050601;28;20496;-56
2021/07/08 05:57:06;;;;;;;8.50;6.97;;;17.00;99.90;;;;;;5044721;28;20505;-56
2021/07/08 05:59:33;;;;;;;9.40;6.87;;;17.00;99.90;;;;;;5051195;28;20451;-56
2021/07/08 06:02:00;;;;;;;10.40;7.33;;;17.00;99.90;;;;;;5052747;28;20532;-56
2021/07/08 06:04:27;;;;;;;8.70;7.20;;;17.00;99.90;;;;;;5053994;28;20512;-56
2021/07/08 06:06:54;;;;;;;9.40;6.67;;;17.00;99.90;;;;;;5054830;28;20448;-56
2021/07/08 06:09:21;;;;;;;8.30;6.17;;;17.00;99.90;;;;;;5054627;28;20517;-56
2021/07/08 06:11:50;;;;;;;6.90;6.20;;;17.10;99.90;;;;;;5054215;28;20536;-57
2021/07/08 06:14:19;;;;;;;7.90;6.80;;;17.10;99.90;;;;;;5054764;28;20475;-56
2021/07/08 06:16:46;;;;;;;7.10;6.30;;;17.20;99.90;;;;;;5054345;28;20451;-56
2021/07/08 06:19:13;;;;;;;6.70;5.60;;;17.20;99.90;;;;;;5054938;28;20451;-56
2021/07/08 06:21:40;;;;;;;8.97;6.13;;;17.30;99.90;;;;;;5054649;28;20559;-56
2021/07/08 06:24:08;;;;;;;8.73;7.13;;;17.30;99.90;;;;;;5054081;28;20498;-56
2021/07/08 06:26:35;;;;;;;8.40;7.13;;;17.30;99.90;;;;;;5054263;28;20491;-56
2021/07/08 06:29:02;;;;;;;9.03;7.70;;;17.20;99.90;;;;;;5054645;28;21126;-56
2021/07/08 06:31:30;;;;;;;8.03;6.87;;;17.20;99.90;;;;;;5054578;28;20513;-56
2021/07/08 06:33:57;;;;;;;9.10;6.53;;;17.20;99.90;;;;;;5054270;28;20479;-56
2021/07/08 06:36:25;;;;;;;8.97;7.17;;;17.20;99.90;;;;;;5053811;28;20448;-56
2021/07/08 06:38:52;;;;;;;8.50;7.00;;;17.20;99.90;;;;;;5054509;28;20458;-56
2021/07/08 06:41:19;;;;;;;8.30;6.97;;;17.20;99.90;;;;;;5054789;28;20476;-56
2021/07/08 06:43:47;;;;;;;7.00;6.30;;;17.30;99.90;;;;;;5053770;28;20464;-56
2021/07/08 06:46:17;;;;;;;12.37;7.90;;;17.30;99.90;;;;;;5056617;28;20439;-56
2021/07/08 06:48:47;;;;;;;11.70;7.47;;;17.20;99.90;;;;;;5053266;28;20443;-56
2021/07/08 06:51:14;;;;;;;9.30;7.33;;;17.10;99.90;;;;;;5054235;28;20467;-56
2021/07/08 06:53:41;;;;;;;9.10;7.30;;;17.20;99.90;;;;;;5054008;28;20506;-56
2021/07/08 06:56:08;;;;;;;8.20;6.17;;;17.20;99.90;;;;;;5054242;28;20456;-56
2021/07/08 06:58:34;;;;;;;8.10;6.70;;;17.20;99.90;;;;;;5054568;28;20455;-56
2021/07/08 07:01:01;;;;;;;9.13;7.37;;;17.20;99.90;;;;;;5053998;28;20902;-56
2021/07/08 07:03:29;;;;;;;10.57;7.17;;;17.20;99.90;;;;;;5053879;28;20462;-56
2021/07/08 07:05:57;;;;;;;9.20;7.60;;;17.20;99.90;;;;;;5054147;28;20464;-56
2021/07/08 07:08:24;;;;;;;11.50;8.07;;;17.10;99.90;;;;;;5051565;28;20451;-56
2021/07/08 07:10:51;;;;;;;11.60;8.57;;;16.90;99.90;;;;;;5054074;28;20536;-56
2021/07/08 07:13:18;;;;;;;13.10;8.30;;;17.00;99.90;;;;;;5053346;28;20487;-56
2021/07/08 07:15:45;;;;;;;10.20;7.00;;;17.10;99.90;;;;;;5055155;28;20523;-56
2021/07/08 07:18:12;;;;;;;8.00;7.20;;;17.20;99.90;;;;;;5049910;28;20452;-56
2021/07/08 07:20:39;;;;;;;10.80;7.40;;;17.30;99.90;;;;;;5046553;28;20471;-56
2021/07/08 07:23:08;;;;;;;8.87;7.40;;;17.30;99.90;;;;;;5065501;28;20903;-56
2021/07/08 07:25:40;;;;;;;8.43;7.50;;;17.30;99.90;;;;;;5069413;28;20945;-56
2021/07/08 07:28:08;;;;;;;10.17;7.40;;;17.30;99.90;;;;;;5054055;28;20447;-56
2021/07/08 07:30:35;;;;;;;7.70;6.80;;;17.30;99.90;;;;;;5053451;28;20468;-56
2021/07/08 07:33:02;;;;;;;7.67;6.63;;;17.30;99.90;;;;;;5052171;28;21002;-56
2021/07/08 07:35:29;;;;;;;8.20;6.77;;;17.30;99.90;;;;;;5053171;28;20497;-56
2021/07/08 07:37:56;;;;;;;6.77;5.70;;;17.30;99.90;;;;;;5053773;28;20497;-56
2021/07/08 07:40:25;;;;;;;11.75;7.80;;;17.40;99.90;;;;;;5049330;28;20455;-56
2021/07/08 07:42:54;;;;;;;11.70;7.70;;;17.40;99.90;;;;;;5053220;28;20201;-56
2021/07/08 07:45:21;;;;;;;11.80;8.20;;;17.20;99.90;;;;;;5048744;28;20459;-56
2021/07/08 07:47:52;;;;;;;9.90;7.23;;;17.10;99.90;;;;;;5047754;28;20467;-56
2021/07/08 07:50:20;;;;;;;10.90;8.70;;;17.00;99.90;;;;;;5053157;28;20562;-56
2021/07/08 07:52:47;;;;;;;11.13;8.67;;;16.90;99.90;;;;;;5063346;28;20468;-56
2021/07/08 07:55:16;;;;;;;12.90;8.40;;;16.90;99.90;;;;;;5064714;28;20540;-56
2021/07/08 07:57:46;;;;;;;10.13;7.87;;;16.90;99.90;;;;;;5043109;28;20467;-56
2021/07/08 08:00:13;;;;;;;10.93;7.30;;;16.90;99.90;;;;;;5045099;28;20549;-56
2021/07/08 08:02:41;;;;;;;10.37;8.17;;;17.00;99.90;;;;;;5046406;28;20460;-56
2021/07/08 08:05:22;;;;;;;10.03;7.87;;;17.10;99.90;;;;;;5044920;28;20873;-56
2021/07/08 08:10:34;;;;;;;9.60;7.60;;;17.20;99.90;;;;;;5047032;28;20517;-56
2021/07/08 08:13:02;;;;;;;10.57;8.40;;;17.20;99.90;;;;;;5050789;28;20463;-56
2021/07/08 08:15:29;;;;;;;8.90;6.67;;;17.10;99.90;;;;;;5054401;28;20944;-57
2021/07/08 08:18:00;;;;;;;8.60;7.00;;;17.10;99.90;;;;;;5044865;28;20467;-57
2021/07/08 08:20:27;;;;;;;10.10;8.63;;;17.20;99.90;;;;;;5049716;28;20467;-57
2021/07/08 08:22:54;;;;;;;7.87;6.83;;;17.20;99.90;;;;;;5038607;28;20517;-56
2021/07/08 08:25:22;;;;;;;7.90;7.07;;;17.20;99.90;;;;;;5045092;28;20953;-56
2021/07/08 08:27:49;;;;;;;8.03;6.93;;;17.20;99.90;;;;;;5048207;28;20542;-57
2021/07/08 08:30:18;;;;;;;8.33;5.47;;;17.20;99.90;;;;;;5051588;28;20463;-56
2021/07/08 08:32:45;;;;;;;9.07;6.30;;;17.20;99.90;;;;;;5042848;28;20525;-56
2021/07/08 08:35:13;;;;;;;5.97;5.30;;;17.30;99.90;;;;;;5045328;28;20909;-56
2021/07/08 08:37:42;;;;;;;6.50;5.30;;;17.30;99.90;;;;;;5046082;28;20546;-56
2021/07/08 08:40:11;;;;;;;6.80;6.10;;;17.20;99.90;;;;;;5040970;28;21289;-56
2021/07/08 08:42:38;;;;;;;6.83;5.77;;;17.10;99.90;;;;;;5043474;28;20513;-56
2021/07/08 08:45:11;;;;;;;7.07;6.33;;;17.10;99.90;;;;;;5050116;28;20950;-56
2021/07/08 08:48:02;;;;;;;10.07;6.40;;;17.00;99.90;;;;;;5049077;28;20463;-56
2021/07/08 08:50:31;;;;;;;6.00;5.40;;;17.10;99.90;;;;;;5048097;28;20559;-56
2021/07/08 08:52:59;;;;;;;5.50;5.00;;;17.10;99.90;;;;;;5044474;28;20534;-56
2021/07/08 08:55:26;;;;;;;5.00;4.50;;;17.30;99.90;;;;;;5043716;28;20517;-56
2021/07/08 08:57:53;;;;;;;5.90;5.13;;;17.40;99.90;;;;;;5042443;28;20477;-56
2021/07/08 09:00:46;;;;;;;5.83;5.27;;;17.40;99.90;;;;;;5046846;28;20478;-56
2021/07/08 09:03:17;;;;;;;6.63;5.40;;;17.50;99.90;;;;;;5047977;28;20466;-56
2021/07/08 09:05:47;;;;;;;7.03;6.07;;;17.40;99.90;;;;;;5044792;28;20468;-56
2021/07/08 09:08:18;;;;;;;6.60;5.87;;;17.30;99.90;;;;;;5044831;28;20962;-56
2021/07/08 09:10:51;;;;;;;6.67;5.60;;;17.30;99.90;;;;;;5049536;28;20494;-56
2021/07/08 09:13:18;;;;;;;8.63;6.70;;;17.40;99.90;;;;;;5046342;28;20878;-56
2021/07/08 09:15:45;;;;;;;7.23;6.17;;;17.40;99.90;;;;;;5043604;28;20479;-56
2021/07/08 09:18:15;;;;;;;6.13;5.43;;;17.30;99.90;;;;;;5049528;28;20542;-56
2021/07/08 09:20:43;;;;;;;8.17;6.00;;;17.30;99.90;;;;;;5046375;28;21548;-56
2021/07/08 09:23:16;;;;;;;10.87;6.33;;;17.30;99.90;;;;;;5045365;28;20464;-56
2021/07/08 09:25:45;;;;;;;5.90;5.30;;;17.30;99.90;;;;;;5066236;28;20492;-56
2021/07/08 09:28:19;;;;;;;7.37;5.73;;;17.30;99.90;;;;;;5059059;28;20462;-56
2021/07/08 09:30:46;;;;;;;7.50;5.77;;;17.30;99.90;;;;;;5058608;28;20486;-56
2021/07/08 09:33:38;;;;;;;5.30;4.80;;;17.30;99.90;;;;;;5059066;28;20444;-56
2021/07/08 09:36:11;;;;;;;4.40;4.00;;;17.30;99.90;;;;;;5043256;28;21059;-56
2021/07/08 09:38:40;;;;;;;6.10;4.70;;;17.20;99.90;;;;;;5062819;28;20451;-56
2021/07/08 09:41:13;;;;;;;6.63;4.63;;;17.10;99.90;;;;;;5061066;28;20559;-56
2021/07/08 09:43:41;;;;;;;6.70;4.50;;;17.00;99.90;;;;;;5054159;28;20461;-56
2021/07/08 09:46:09;;;;;;;6.60;5.33;;;17.00;99.90;;;;;;5051560;28;20964;-57
2021/07/08 09:48:38;;;;;;;6.10;5.37;;;17.10;99.90;;;;;;5048064;28;20524;-56
2021/07/08 09:51:05;;;;;;;7.00;5.77;;;17.10;99.90;;;;;;5062360;28;20515;-56
2021/07/08 09:53:32;;;;;;;8.43;6.80;;;17.10;99.90;;;;;;5054149;28;20502;-56
2021/07/08 09:56:10;;;;;;;8.50;7.20;;;16.90;99.90;;;;;;5053255;28;20533;-57
2021/07/08 09:58:51;;;;;;;6.03;5.13;;;17.00;99.90;;;;;;5053240;28;20448;-56
2021/07/08 10:01:18;;;;;;;6.83;5.97;;;17.10;99.90;;;;;;5066721;22;20847;-50
2021/07/08 10:03:48;;;;;;;7.50;5.73;;;17.20;99.90;;;;;;5030502;28;20503;-51
2021/07/08 10:06:16;;;;;;;4.97;4.40;;;17.20;99.90;;;;;;5031116;28;20935;-51
2021/07/08 10:08:43;;;;;;;5.13;4.70;;;17.20;99.90;;;;;;5031438;28;20453;-51
2021/07/08 10:11:12;;;;;;;7.10;6.20;;;17.30;99.90;;;;;;5030880;28;20488;-51
2021/07/08 10:13:40;;;;;;;5.83;5.23;;;17.20;99.90;;;;;;5031312;28;20867;-51
2021/07/08 10:16:08;;;;;;;5.20;4.70;;;17.20;99.90;;;;;;5031574;28;20484;-51
2021/07/08 10:18:38;;;;;;;4.87;4.20;;;17.20;99.90;;;;;;5030971;28;20510;-51
2021/07/08 10:21:07;;;;;;;4.80;4.40;;;17.30;99.90;;;;;;5031197;28;20472;-51
2021/07/08 10:23:36;;;;;;;5.63;4.97;;;17.30;99.90;;;;;;5030918;28;20461;-51
2021/07/08 10:26:05;;;;;;;5.40;4.90;;;17.20;99.90;;;;;;5031167;28;20456;-51
2021/07/08 10:28:35;;;;;;;4.90;4.43;;;17.10;99.90;;;;;;5031342;28;20545;-50
2021/07/08 10:31:03;;;;;;;4.60;4.03;;;17.00;99.90;;;;;;5030978;28;20480;-50
2021/07/08 10:33:34;;;;;;;5.40;4.10;;;17.00;99.90;;;;;;5030724;28;20460;-51
2021/07/08 10:36:01;;;;;;;4.37;3.97;;;16.90;99.90;;;;;;5031026;28;20487;-51
2021/07/08 10:38:49;;;;;;;4.60;4.20;;;17.20;99.90;;;;;;5031247;28;20444;-51
2021/07/08 10:41:41;;;;;;;4.57;4.07;;;17.10;99.90;;;;;;5031325;28;20464;-51
2021/07/08 10:44:38;;;;;;;4.30;3.90;;;17.10;99.90;;;;;;5011844;28;20464;-51
2021/07/08 10:47:06;;;;;;;5.73;3.90;;;17.10;99.90;;;;;;5031082;28;20458;-51
2021/07/08 10:49:37;;;;;;;3.77;3.47;;;17.10;99.90;;;;;;5034743;28;20448;-51
2021/07/08 10:52:08;;;;;;;3.67;3.37;;;17.20;99.90;;;;;;5034393;28;20464;-51
2021/07/08 10:54:36;;;;;;;3.87;3.57;;;17.10;99.90;;;;;;5034419;28;20556;-51
2021/07/08 10:57:05;;;;;;;4.20;3.80;;;17.20;99.90;;;;;;5033056;28;20514;-50
2021/07/08 10:59:41;;;;;;;4.37;3.93;;;17.20;99.90;;;;;;5032076;28;20511;-51
2021/07/08 11:02:09;;;;;;;5.13;4.37;;;17.10;99.90;;;;;;5034030;28;20534;-51
2021/07/08 11:04:43;;;;;;;5.03;4.13;;;16.90;99.90;;;;;;5034385;28;20440;-50
2021/07/08 11:07:15;;;;;;;4.07;3.67;;;17.00;99.90;;;;;;5033974;28;20493;-50
2021/07/08 11:09:57;;;;;;;4.70;3.70;;;17.00;99.90;;;;;;5034086;28;20452;-51
2021/07/08 11:12:31;;;;;;;7.73;4.63;;;17.30;99.90;;;;;;5033563;28;20896;-51
2021/07/08 11:14:59;;;;;;;4.80;3.40;;;17.50;99.90;;;;;;5033884;28;20455;-50
2021/07/08 11:17:27;;;;;;;4.50;3.87;;;17.20;99.90;;;;;;5034434;28;20532;-50
2021/07/08 11:19:57;;;;;;;5.70;5.10;;;17.20;99.90;;;;;;5030155;28;20518;-51
2021/07/08 11:22:36;;;;;;;5.00;4.40;;;17.20;99.90;;;;;;5032424;28;20476;-50
2021/07/08 11:25:07;;;;;;;5.47;4.90;;;17.30;99.90;;;;;;5028725;28;20440;-50
2021/07/08 11:27:40;;;;;;;5.10;4.17;;;17.10;99.90;;;;;;5032019;28;20526;-51
2021/07/08 11:30:31;;;;;;;3.97;3.43;;;17.10;99.90;;;;;;5032452;28;20876;-51
2021/07/08 11:33:05;;;;;;;8.23;3.30;;;17.10;99.90;;;;;;5031855;28;20486;-50
2021/07/08 11:35:36;;;;;;;2.03;1.93;;;17.10;99.90;;;;;;5032078;28;20476;-50
2021/07/08 11:38:11;;;;;;;2.47;1.80;;;17.10;99.90;;;;;;5032029;28;20453;-51
2021/07/08 11:40:44;;;;;;;2.13;1.53;;;17.00;99.90;;;;;;5028849;28;20452;-50
2021/07/08 11:43:20;;;;;;;1.93;1.60;;;17.10;99.90;;;;;;5028653;28;20491;-51
2021/07/08 11:45:49;;;;;;;1.97;1.60;;;17.10;99.90;;;;;;5032447;28;20445;-50
2021/07/08 11:48:25;;;;;;;1.97;1.27;;;17.10;99.90;;;;;;5032078;28;20455;-50
2021/07/08 11:50:52;;;;;;;3.63;1.97;;;17.10;99.90;;;;;;5028053;28;20448;-50
2021/07/08 11:53:21;;;;;;;2.53;1.40;;;17.10;99.90;;;;;;5031612;28;20452;-50
2021/07/08 11:55:52;;;;;;;3.13;2.17;;;17.10;99.90;;;;;;5031533;28;20542;-51
2021/07/08 11:58:23;;;;;;;6.03;3.30;;;17.00;99.90;;;;;;5031528;28;20452;-50
2021/07/08 12:00:51;;;;;;;8.40;4.90;;;17.00;99.90;;;;;;5031079;28;20440;-50
2021/07/08 12:03:30;;;;;;;4.77;3.50;;;17.00;99.90;;;;;;5027889;28;20511;-51
2021/07/08 12:06:02;;;;;;;4.00;3.20;;;17.00;99.90;;;;;;5028832;28;20451;-49
2021/07/08 12:08:31;;;;;;;2.40;2.20;;;17.10;99.90;;;;;;5028233;28;20452;-50
2021/07/08 12:11:09;;;;;;;1.50;1.40;;;17.30;99.90;;;;;;5030800;28;20507;-51
2021/07/08 12:13:39;;;;;;;1.50;1.40;;;17.50;99.90;;;;;;5027536;28;20444;-50
2021/07/08 12:16:08;;;;;;;2.43;1.80;;;17.70;99.90;;;;;;5030912;28;20484;-51
2021/07/08 12:18:44;;;;;;;2.90;2.50;;;17.70;99.90;;;;;;5033823;28;20459;-50
2021/07/08 12:21:25;;;;;;;3.00;2.80;;;17.70;99.90;;;;;;5029188;28;20510;-50
2021/07/08 12:23:54;;;;;;;2.97;2.17;;;17.60;99.90;;;;;;5038735;28;20453;-50
2021/07/08 12:26:30;;;;;;;1.90;1.80;;;17.70;99.90;;;;;;5029916;28;20954;-50
2021/07/08 12:29:12;;;;;;;2.50;1.90;;;17.80;99.90;;;;;;5032189;28;20454;-51
2021/07/08 12:31:48;;;;;;;2.13;2.00;;;17.80;99.90;;;;;;5031053;28;20526;-50
2021/07/08 12:34:15;;;;;;;2.93;2.13;;;18.10;99.90;;;;;;5012596;28;20955;-51
2021/07/08 12:36:42;;;;;;;2.00;1.90;;;18.30;99.90;;;;;;5028451;28;20484;-50
2021/07/08 12:39:09;;;;;;;1.50;1.40;;;18.50;99.90;;;;;;5030448;28;21172;-50
2021/07/08 12:41:38;;;;;;;2.33;2.13;;;18.70;99.90;;;;;;5030481;28;20531;-50
2021/07/08 12:44:12;;;;;;;1.80;1.13;;;18.90;99.90;;;;;;5030476;28;20445;-50
2021/07/08 12:46:40;;;;;;;3.30;0.90;;;18.90;99.90;;;;;;5031184;28;20495;-49
2021/07/08 12:49:08;;;;;;;0.80;0.80;;;18.80;99.90;;;;;;5031337;28;20461;-50
2021/07/08 12:51:35;;;;;;;1.27;0.70;;;18.90;99.90;;;;;;5027191;28;20461;-50
2021/07/08 12:54:03;;;;;;;1.67;0.80;;;18.90;99.90;;;;;;5030859;28;20515;-49
2021/07/08 12:56:30;;;;;;;0.90;0.80;;;19.00;99.90;;;;;;5029845;28;20508;-50